sensor_id;sensor_type;location;lat;lon;timestamp;P1;durP1;ratioP1;P2;durP2;ratioP2
13477;SDS011;12598;62.382;17.344;2022-08-19T00:00:05;1.83;;;1.30;;
13477;SDS011;12598;62.382;17.344;2022-08-19T00:01:10;3.25;;;1.20;;
13477;SDS011;12598;62.382;17.344;2022-08-19T00:02:11;3.30;;;1.50;;
13477;SDS011;12598;62.382;17.344;2022-08-19T00:03:13;1.55;;;1.23;;
13477;SDS011;12598;62.382;17.344;2022-08-19T00:04:15;2.00;;;1.08;;
13477;SDS011;12598;62.382;17.344;2022-08-19T00:05:20;1.85;;;1.27;;
13477;SDS011;12598;62.382;17.344;2022-08-19T00:06:23;1.73;;;1.40;;
13477;SDS011;12598;62.382;17.344;2022-08-19T00:07:26;1.95;;;1.20;;
13477;SDS011;12598;62.382;17.344;2022-08-19T00:08:28;2.47;;;1.75;;
13477;SDS011;12598;62.382;17.344;2022-08-19T00:09:30;2.38;;;1.55;;
13477;SDS011;12598;62.382;17.344;2022-08-19T00:10:32;2.85;;;1.48;;
13477;SDS011;12598;62.382;17.344;2022-08-19T00:11:35;1.38;;;1.23;;
13477;SDS011;12598;62.382;17.344;2022-08-19T00:12:38;2.55;;;1.25;;
13477;SDS011;12598;62.382;17.344;2022-08-19T00:13:47;1.38;;;1.17;;
13477;SDS011;12598;62.382;17.344;2022-08-19T00:14:51;1.83;;;1.25;;
13477;SDS011;12598;62.382;17.344;2022-08-19T00:15:55;2.40;;;1.27;;
13477;SDS011;12598;62.382;17.344;2022-08-19T00:17:00;1.92;;;1.33;;
13477;SDS011;12598;62.382;17.344;2022-08-19T00:18:03;1.75;;;1.20;;
13477;SDS011;12598;62.382;17.344;2022-08-19T00:19:05;2.13;;;1.30;;
13477;SDS011;12598;62.382;17.344;2022-08-19T00:20:08;1.50;;;1.13;;
13477;SDS011;12598;62.382;17.344;2022-08-19T00:21:12;1.38;;;1.15;;
13477;SDS011;12598;62.382;17.344;2022-08-19T00:22:14;2.72;;;1.40;;
13477;SDS011;12598;62.382;17.344;2022-08-19T00:23:17;1.98;;;1.25;;
13477;SDS011;12598;62.382;17.344;2022-08-19T00:24:20;3.28;;;1.60;;
13477;SDS011;12598;62.382;17.344;2022-08-19T00:25:21;2.50;;;1.52;;
13477;SDS011;12598;62.382;17.344;2022-08-19T00:26:31;2.20;;;1.50;;
13477;SDS011;12598;62.382;17.344;2022-08-19T00:27:33;1.58;;;1.20;;
13477;SDS011;12598;62.382;17.344;2022-08-19T00:28:35;2.92;;;1.63;;
13477;SDS011;12598;62.382;17.344;2022-08-19T00:29:37;1.83;;;1.40;;
13477;SDS011;12598;62.382;17.344;2022-08-19T00:30:39;2.80;;;1.50;;
13477;SDS011;12598;62.382;17.344;2022-08-19T00:31:42;2.03;;;1.40;;
13477;SDS011;12598;62.382;17.344;2022-08-19T00:32:45;1.95;;;1.30;;
13477;SDS011;12598;62.382;17.344;2022-08-19T00:33:47;2.67;;;1.60;;
13477;SDS011;12598;62.382;17.344;2022-08-19T00:34:52;2.33;;;1.58;;
13477;SDS011;12598;62.382;17.344;2022-08-19T00:35:54;2.42;;;1.30;;
13477;SDS011;12598;62.382;17.344;2022-08-19T00:36:56;2.55;;;1.48;;
13477;SDS011;12598;62.382;17.344;2022-08-19T00:37:58;2.38;;;1.48;;
13477;SDS011;12598;62.382;17.344;2022-08-19T00:39:00;1.73;;;1.60;;
13477;SDS011;12598;62.382;17.344;2022-08-19T00:40:03;3.88;;;1.77;;
13477;SDS011;12598;62.382;17.344;2022-08-19T00:41:06;1.98;;;1.52;;
13477;SDS011;12598;62.382;17.344;2022-08-19T00:42:10;2.25;;;1.60;;
13477;SDS011;12598;62.382;17.344;2022-08-19T00:43:13;2.58;;;1.60;;
13477;SDS011;12598;62.382;17.344;2022-08-19T00:44:24;1.55;;;1.45;;
13477;SDS011;12598;62.382;17.344;2022-08-19T00:45:29;2.85;;;1.42;;
13477;SDS011;12598;62.382;17.344;2022-08-19T00:46:37;3.50;;;1.38;;
13477;SDS011;12598;62.382;17.344;2022-08-19T00:47:41;1.67;;;1.45;;
13477;SDS011;12598;62.382;17.344;2022-08-19T00:48:43;3.03;;;1.52;;
13477;SDS011;12598;62.382;17.344;2022-08-19T00:49:46;2.47;;;1.50;;
13477;SDS011;12598;62.382;17.344;2022-08-19T00:50:52;1.70;;;1.50;;
13477;SDS011;12598;62.382;17.344;2022-08-19T00:51:59;2.88;;;1.48;;
13477;SDS011;12598;62.382;17.344;2022-08-19T00:53:13;2.35;;;1.58;;
13477;SDS011;12598;62.382;17.344;2022-08-19T00:54:19;1.65;;;1.45;;
13477;SDS011;12598;62.382;17.344;2022-08-19T00:55:31;2.10;;;1.63;;
13477;SDS011;12598;62.382;17.344;2022-08-19T00:56:35;2.42;;;1.73;;
13477;SDS011;12598;62.382;17.344;2022-08-19T00:57:38;3.03;;;1.27;;
13477;SDS011;12598;62.382;17.344;2022-08-19T00:58:43;2.28;;;1.65;;
13477;SDS011;12598;62.382;17.344;2022-08-19T00:59:46;1.35;;;1.25;;
13477;SDS011;12598;62.382;17.344;2022-08-19T01:01:03;3.13;;;1.45;;
13477;SDS011;12598;62.382;17.344;2022-08-19T01:02:06;2.17;;;1.55;;
13477;SDS011;12598;62.382;17.344;2022-08-19T01:03:10;1.85;;;1.48;;
13477;SDS011;12598;62.382;17.344;2022-08-19T01:04:20;2.00;;;1.25;;
13477;SDS011;12598;62.382;17.344;2022-08-19T01:05:23;2.53;;;1.67;;
13477;SDS011;12598;62.382;17.344;2022-08-19T01:06:28;2.67;;;1.80;;
13477;SDS011;12598;62.382;17.344;2022-08-19T01:07:34;1.80;;;1.50;;
13477;SDS011;12598;62.382;17.344;2022-08-19T01:08:38;1.83;;;1.60;;
13477;SDS011;12598;62.382;17.344;2022-08-19T01:09:40;2.25;;;1.25;;
13477;SDS011;12598;62.382;17.344;2022-08-19T01:10:47;1.88;;;1.60;;
13477;SDS011;12598;62.382;17.344;2022-08-19T01:11:51;3.45;;;1.90;;
13477;SDS011;12598;62.382;17.344;2022-08-19T01:12:54;1.83;;;1.58;;
13477;SDS011;12598;62.382;17.344;2022-08-19T01:13:57;2.95;;;1.50;;
13477;SDS011;12598;62.382;17.344;2022-08-19T01:15:00;1.70;;;1.60;;
13477;SDS011;12598;62.382;17.344;2022-08-19T01:16:04;2.78;;;1.70;;
13477;SDS011;12598;62.382;17.344;2022-08-19T01:17:09;2.53;;;1.70;;
13477;SDS011;12598;62.382;17.344;2022-08-19T01:18:13;2.50;;;1.58;;
13477;SDS011;12598;62.382;17.344;2022-08-19T01:19:22;2.25;;;1.70;;
13477;SDS011;12598;62.382;17.344;2022-08-19T01:20:29;1.80;;;1.70;;
13477;SDS011;12598;62.382;17.344;2022-08-19T01:21:32;3.05;;;1.63;;
13477;SDS011;12598;62.382;17.344;2022-08-19T01:22:49;1.80;;;1.45;;
13477;SDS011;12598;62.382;17.344;2022-08-19T01:23:53;2.90;;;1.88;;
13477;SDS011;12598;62.382;17.344;2022-08-19T01:24:56;1.58;;;1.42;;
13477;SDS011;12598;62.382;17.344;2022-08-19T01:25:59;2.25;;;1.50;;
13477;SDS011;12598;62.382;17.344;2022-08-19T01:27:05;1.73;;;1.30;;
13477;SDS011;12598;62.382;17.344;2022-08-19T01:28:15;2.67;;;1.60;;
13477;SDS011;12598;62.382;17.344;2022-08-19T01:29:36;3.10;;;1.67;;
13477;SDS011;12598;62.382;17.344;2022-08-19T01:30:41;2.25;;;1.67;;
13477;SDS011;12598;62.382;17.344;2022-08-19T01:31:51;1.77;;;1.50;;
13477;SDS011;12598;62.382;17.344;2022-08-19T01:32:54;3.10;;;1.67;;
13477;SDS011;12598;62.382;17.344;2022-08-19T01:33:57;1.83;;;1.48;;
13477;SDS011;12598;62.382;17.344;2022-08-19T01:34:59;1.75;;;1.50;;
13477;SDS011;12598;62.382;17.344;2022-08-19T01:36:04;3.08;;;1.70;;
13477;SDS011;12598;62.382;17.344;2022-08-19T01:37:09;3.03;;;1.80;;
13477;SDS011;12598;62.382;17.344;2022-08-19T01:38:20;1.88;;;1.60;;
13477;SDS011;12598;62.382;17.344;2022-08-19T01:39:25;1.45;;;1.20;;
13477;SDS011;12598;62.382;17.344;2022-08-19T01:40:31;2.47;;;1.60;;
13477;SDS011;12598;62.382;17.344;2022-08-19T01:41:34;2.40;;;1.67;;
13477;SDS011;12598;62.382;17.344;2022-08-19T01:42:36;2.70;;;1.60;;
13477;SDS011;12598;62.382;17.344;2022-08-19T01:43:38;1.83;;;1.48;;
13477;SDS011;12598;62.382;17.344;2022-08-19T01:45:01;2.22;;;1.63;;
13477;SDS011;12598;62.382;17.344;2022-08-19T01:46:03;2.40;;;1.80;;
13477;SDS011;12598;62.382;17.344;2022-08-19T01:47:06;1.65;;;1.05;;
13477;SDS011;12598;62.382;17.344;2022-08-19T01:48:09;1.58;;;1.40;;
13477;SDS011;12598;62.382;17.344;2022-08-19T01:49:12;2.58;;;1.77;;
13477;SDS011;12598;62.382;17.344;2022-08-19T01:50:13;1.42;;;1.33;;
13477;SDS011;12598;62.382;17.344;2022-08-19T01:51:16;1.92;;;1.40;;
13477;SDS011;12598;62.382;17.344;2022-08-19T01:52:19;2.03;;;1.63;;
13477;SDS011;12598;62.382;17.344;2022-08-19T01:53:21;3.13;;;1.52;;
13477;SDS011;12598;62.382;17.344;2022-08-19T01:54:27;1.52;;;1.33;;
13477;SDS011;12598;62.382;17.344;2022-08-19T01:55:29;2.33;;;1.50;;
13477;SDS011;12598;62.382;17.344;2022-08-19T01:56:31;3.30;;;1.70;;
13477;SDS011;12598;62.382;17.344;2022-08-19T01:57:33;1.50;;;1.40;;
13477;SDS011;12598;62.382;17.344;2022-08-19T01:58:36;1.50;;;1.35;;
13477;SDS011;12598;62.382;17.344;2022-08-19T01:59:42;2.45;;;1.50;;
13477;SDS011;12598;62.382;17.344;2022-08-19T02:00:46;1.40;;;1.30;;
13477;SDS011;12598;62.382;17.344;2022-08-19T02:01:48;3.00;;;1.58;;
13477;SDS011;12598;62.382;17.344;2022-08-19T02:02:50;2.65;;;1.40;;
13477;SDS011;12598;62.382;17.344;2022-08-19T02:03:52;1.67;;;1.40;;
13477;SDS011;12598;62.382;17.344;2022-08-19T02:04:58;2.72;;;1.85;;
13477;SDS011;12598;62.382;17.344;2022-08-19T02:06:00;1.98;;;1.77;;
13477;SDS011;12598;62.382;17.344;2022-08-19T02:07:07;2.38;;;1.48;;
13477;SDS011;12598;62.382;17.344;2022-08-19T02:08:10;2.28;;;1.33;;
13477;SDS011;12598;62.382;17.344;2022-08-19T02:09:12;2.22;;;1.55;;
13477;SDS011;12598;62.382;17.344;2022-08-19T02:10:16;2.30;;;1.52;;
13477;SDS011;12598;62.382;17.344;2022-08-19T02:11:22;1.70;;;1.30;;
13477;SDS011;12598;62.382;17.344;2022-08-19T02:12:28;2.67;;;1.33;;
13477;SDS011;12598;62.382;17.344;2022-08-19T02:13:31;2.45;;;1.58;;
13477;SDS011;12598;62.382;17.344;2022-08-19T02:14:34;1.60;;;1.48;;
13477;SDS011;12598;62.382;17.344;2022-08-19T02:15:37;1.92;;;1.60;;
13477;SDS011;12598;62.382;17.344;2022-08-19T02:16:39;2.08;;;1.48;;
13477;SDS011;12598;62.382;17.344;2022-08-19T02:17:42;1.70;;;1.33;;
13477;SDS011;12598;62.382;17.344;2022-08-19T02:18:44;1.73;;;1.55;;
13477;SDS011;12598;62.382;17.344;2022-08-19T02:19:46;2.08;;;1.55;;
13477;SDS011;12598;62.382;17.344;2022-08-19T02:20:49;4.25;;;1.60;;
13477;SDS011;12598;62.382;17.344;2022-08-19T02:21:51;2.05;;;1.52;;
13477;SDS011;12598;62.382;17.344;2022-08-19T02:22:53;2.67;;;1.50;;
13477;SDS011;12598;62.382;17.344;2022-08-19T02:23:55;2.42;;;1.48;;
13477;SDS011;12598;62.382;17.344;2022-08-19T02:24:57;1.70;;;1.58;;
13477;SDS011;12598;62.382;17.344;2022-08-19T02:25:59;1.83;;;1.65;;
13477;SDS011;12598;62.382;17.344;2022-08-19T02:27:01;2.40;;;1.60;;
13477;SDS011;12598;62.382;17.344;2022-08-19T02:28:02;1.70;;;1.60;;
13477;SDS011;12598;62.382;17.344;2022-08-19T02:29:05;2.20;;;1.52;;
13477;SDS011;12598;62.382;17.344;2022-08-19T02:30:08;1.83;;;1.60;;
13477;SDS011;12598;62.382;17.344;2022-08-19T02:31:17;1.50;;;1.20;;
13477;SDS011;12598;62.382;17.344;2022-08-19T02:32:21;1.70;;;1.42;;
13477;SDS011;12598;62.382;17.344;2022-08-19T02:33:23;1.67;;;1.50;;
13477;SDS011;12598;62.382;17.344;2022-08-19T02:34:25;2.03;;;1.42;;
13477;SDS011;12598;62.382;17.344;2022-08-19T02:35:27;1.70;;;1.58;;
13477;SDS011;12598;62.382;17.344;2022-08-19T02:36:29;2.25;;;1.65;;
13477;SDS011;12598;62.382;17.344;2022-08-19T02:37:31;1.75;;;1.60;;
13477;SDS011;12598;62.382;17.344;2022-08-19T02:38:52;3.10;;;1.60;;
13477;SDS011;12598;62.382;17.344;2022-08-19T02:39:56;2.92;;;1.45;;
13477;SDS011;12598;62.382;17.344;2022-08-19T02:41:03;2.60;;;1.88;;
13477;SDS011;12598;62.382;17.344;2022-08-19T02:42:07;1.67;;;1.58;;
13477;SDS011;12598;62.382;17.344;2022-08-19T02:43:09;2.00;;;1.80;;
13477;SDS011;12598;62.382;17.344;2022-08-19T02:44:11;1.90;;;1.50;;
13477;SDS011;12598;62.382;17.344;2022-08-19T02:45:36;3.10;;;1.95;;
13477;SDS011;12598;62.382;17.344;2022-08-19T02:46:42;2.47;;;1.90;;
13477;SDS011;12598;62.382;17.344;2022-08-19T02:47:46;2.72;;;1.85;;
13477;SDS011;12598;62.382;17.344;2022-08-19T02:48:49;2.55;;;1.80;;
13477;SDS011;12598;62.382;17.344;2022-08-19T02:49:55;3.42;;;1.83;;
13477;SDS011;12598;62.382;17.344;2022-08-19T02:50:57;2.13;;;1.80;;
13477;SDS011;12598;62.382;17.344;2022-08-19T02:51:59;3.25;;;1.80;;
13477;SDS011;12598;62.382;17.344;2022-08-19T02:53:00;2.40;;;1.85;;
13477;SDS011;12598;62.382;17.344;2022-08-19T02:54:03;4.72;;;2.03;;
13477;SDS011;12598;62.382;17.344;2022-08-19T02:55:05;2.22;;;1.92;;
13477;SDS011;12598;62.382;17.344;2022-08-19T02:56:08;2.55;;;1.90;;
13477;SDS011;12598;62.382;17.344;2022-08-19T02:57:10;2.15;;;1.80;;
13477;SDS011;12598;62.382;17.344;2022-08-19T02:58:12;2.25;;;2.00;;
13477;SDS011;12598;62.382;17.344;2022-08-19T02:59:15;3.33;;;2.20;;
13477;SDS011;12598;62.382;17.344;2022-08-19T03:00:20;2.50;;;2.15;;
13477;SDS011;12598;62.382;17.344;2022-08-19T03:01:26;3.10;;;1.90;;
13477;SDS011;12598;62.382;17.344;2022-08-19T03:02:33;2.25;;;2.03;;
13477;SDS011;12598;62.382;17.344;2022-08-19T03:03:35;2.65;;;1.90;;
13477;SDS011;12598;62.382;17.344;2022-08-19T03:04:37;2.40;;;1.80;;
13477;SDS011;12598;62.382;17.344;2022-08-19T03:05:39;4.28;;;2.22;;
13477;SDS011;12598;62.382;17.344;2022-08-19T03:06:56;2.92;;;2.17;;
13477;SDS011;12598;62.382;17.344;2022-08-19T03:08:11;2.55;;;2.17;;
13477;SDS011;12598;62.382;17.344;2022-08-19T03:09:14;2.90;;;1.90;;
13477;SDS011;12598;62.382;17.344;2022-08-19T03:10:17;3.17;;;1.90;;
13477;SDS011;12598;62.382;17.344;2022-08-19T03:11:21;2.30;;;2.08;;
13477;SDS011;12598;62.382;17.344;2022-08-19T03:12:24;2.40;;;2.05;;
13477;SDS011;12598;62.382;17.344;2022-08-19T03:13:26;2.45;;;2.13;;
13477;SDS011;12598;62.382;17.344;2022-08-19T03:14:32;2.05;;;1.85;;
13477;SDS011;12598;62.382;17.344;2022-08-19T03:15:38;3.10;;;2.13;;
13477;SDS011;12598;62.382;17.344;2022-08-19T03:16:43;2.92;;;1.85;;
13477;SDS011;12598;62.382;17.344;2022-08-19T03:17:46;2.28;;;2.05;;
13477;SDS011;12598;62.382;17.344;2022-08-19T03:18:48;2.42;;;2.22;;
13477;SDS011;12598;62.382;17.344;2022-08-19T03:19:50;2.30;;;2.10;;
13477;SDS011;12598;62.382;17.344;2022-08-19T03:20:52;4.03;;;2.40;;
13477;SDS011;12598;62.382;17.344;2022-08-19T03:21:55;2.20;;;1.95;;
13477;SDS011;12598;62.382;17.344;2022-08-19T03:22:57;2.50;;;2.00;;
13477;SDS011;12598;62.382;17.344;2022-08-19T03:24:00;2.85;;;2.00;;
13477;SDS011;12598;62.382;17.344;2022-08-19T03:25:05;2.97;;;2.38;;
13477;SDS011;12598;62.382;17.344;2022-08-19T03:26:07;3.28;;;2.42;;
13477;SDS011;12598;62.382;17.344;2022-08-19T03:27:17;2.67;;;2.00;;
13477;SDS011;12598;62.382;17.344;2022-08-19T03:28:19;3.80;;;2.90;;
13477;SDS011;12598;62.382;17.344;2022-08-19T03:29:22;3.72;;;2.30;;
13477;SDS011;12598;62.382;17.344;2022-08-19T03:30:32;2.53;;;2.10;;
13477;SDS011;12598;62.382;17.344;2022-08-19T03:31:34;3.95;;;2.70;;
13477;SDS011;12598;62.382;17.344;2022-08-19T03:32:51;4.35;;;2.40;;
13477;SDS011;12598;62.382;17.344;2022-08-19T03:33:57;2.45;;;2.25;;
13477;SDS011;12598;62.382;17.344;2022-08-19T03:34:59;3.00;;;2.38;;
13477;SDS011;12598;62.382;17.344;2022-08-19T03:37:08;3.28;;;2.35;;
13477;SDS011;12598;62.382;17.344;2022-08-19T03:38:15;2.97;;;2.25;;
13477;SDS011;12598;62.382;17.344;2022-08-19T03:39:17;3.35;;;2.35;;
13477;SDS011;12598;62.382;17.344;2022-08-19T03:40:19;2.58;;;2.38;;
13477;SDS011;12598;62.382;17.344;2022-08-19T03:41:22;3.75;;;2.42;;
13477;SDS011;12598;62.382;17.344;2022-08-19T03:42:44;2.80;;;2.20;;
13477;SDS011;12598;62.382;17.344;2022-08-19T03:43:50;2.97;;;2.30;;
13477;SDS011;12598;62.382;17.344;2022-08-19T03:44:53;2.80;;;2.55;;
13477;SDS011;12598;62.382;17.344;2022-08-19T03:46:02;2.83;;;2.53;;
13477;SDS011;12598;62.382;17.344;2022-08-19T03:47:13;4.93;;;2.65;;
13477;SDS011;12598;62.382;17.344;2022-08-19T03:48:18;2.35;;;2.15;;
13477;SDS011;12598;62.382;17.344;2022-08-19T03:49:20;2.92;;;2.38;;
13477;SDS011;12598;62.382;17.344;2022-08-19T03:50:28;2.55;;;2.28;;
13477;SDS011;12598;62.382;17.344;2022-08-19T03:51:32;4.57;;;2.67;;
13477;SDS011;12598;62.382;17.344;2022-08-19T03:52:36;2.55;;;2.35;;
13477;SDS011;12598;62.382;17.344;2022-08-19T03:53:38;3.05;;;2.75;;
13477;SDS011;12598;62.382;17.344;2022-08-19T03:54:41;2.85;;;2.28;;
13477;SDS011;12598;62.382;17.344;2022-08-19T03:55:43;3.22;;;2.65;;
13477;SDS011;12598;62.382;17.344;2022-08-19T03:56:46;3.05;;;2.75;;
13477;SDS011;12598;62.382;17.344;2022-08-19T03:57:50;3.60;;;2.38;;
13477;SDS011;12598;62.382;17.344;2022-08-19T03:58:52;2.75;;;2.33;;
13477;SDS011;12598;62.382;17.344;2022-08-19T03:59:53;2.47;;;2.28;;
13477;SDS011;12598;62.382;17.344;2022-08-19T04:01:09;3.40;;;2.42;;
13477;SDS011;12598;62.382;17.344;2022-08-19T04:02:12;3.90;;;2.70;;
13477;SDS011;12598;62.382;17.344;2022-08-19T04:03:15;2.55;;;2.35;;
13477;SDS011;12598;62.382;17.344;2022-08-19T04:04:17;2.85;;;2.15;;
13477;SDS011;12598;62.382;17.344;2022-08-19T04:05:20;2.90;;;2.60;;
13477;SDS011;12598;62.382;17.344;2022-08-19T04:06:29;4.72;;;2.97;;
13477;SDS011;12598;62.382;17.344;2022-08-19T04:07:32;2.63;;;2.40;;
13477;SDS011;12598;62.382;17.344;2022-08-19T04:08:35;3.80;;;2.78;;
13477;SDS011;12598;62.382;17.344;2022-08-19T04:09:37;2.92;;;2.72;;
13477;SDS011;12598;62.382;17.344;2022-08-19T04:10:39;2.72;;;2.53;;
13477;SDS011;12598;62.382;17.344;2022-08-19T04:11:45;3.55;;;2.50;;
13477;SDS011;12598;62.382;17.344;2022-08-19T04:12:49;3.10;;;2.78;;
13477;SDS011;12598;62.382;17.344;2022-08-19T04:13:51;3.28;;;2.97;;
13477;SDS011;12598;62.382;17.344;2022-08-19T04:14:55;2.70;;;2.42;;
13477;SDS011;12598;62.382;17.344;2022-08-19T04:15:57;3.10;;;2.75;;
13477;SDS011;12598;62.382;17.344;2022-08-19T04:16:59;3.00;;;2.70;;
13477;SDS011;12598;62.382;17.344;2022-08-19T04:18:02;2.83;;;2.63;;
13477;SDS011;12598;62.382;17.344;2022-08-19T04:19:04;2.97;;;2.67;;
13477;SDS011;12598;62.382;17.344;2022-08-19T04:20:07;2.72;;;2.42;;
13477;SDS011;12598;62.382;17.344;2022-08-19T04:21:14;5.53;;;3.17;;
13477;SDS011;12598;62.382;17.344;2022-08-19T04:22:21;3.63;;;3.33;;
13477;SDS011;12598;62.382;17.344;2022-08-19T04:23:23;2.60;;;2.40;;
13477;SDS011;12598;62.382;17.344;2022-08-19T04:24:25;3.45;;;3.15;;
13477;SDS011;12598;62.382;17.344;2022-08-19T04:25:27;3.85;;;3.45;;
13477;SDS011;12598;62.382;17.344;2022-08-19T04:26:30;3.65;;;3.30;;
13477;SDS011;12598;62.382;17.344;2022-08-19T04:27:35;3.70;;;3.25;;
13477;SDS011;12598;62.382;17.344;2022-08-19T04:28:36;4.28;;;3.05;;
13477;SDS011;12598;62.382;17.344;2022-08-19T04:29:38;3.63;;;3.33;;
13477;SDS011;12598;62.382;17.344;2022-08-19T04:30:42;4.13;;;3.00;;
13477;SDS011;12598;62.382;17.344;2022-08-19T04:31:46;3.53;;;2.97;;
13477;SDS011;12598;62.382;17.344;2022-08-19T04:32:49;3.97;;;3.22;;
13477;SDS011;12598;62.382;17.344;2022-08-19T04:33:52;2.90;;;2.70;;
13477;SDS011;12598;62.382;17.344;2022-08-19T04:34:58;3.55;;;3.25;;
13477;SDS011;12598;62.382;17.344;2022-08-19T04:36:17;4.20;;;3.10;;
13477;SDS011;12598;62.382;17.344;2022-08-19T04:37:21;3.67;;;2.92;;
13477;SDS011;12598;62.382;17.344;2022-08-19T04:38:23;4.03;;;2.85;;
13477;SDS011;12598;62.382;17.344;2022-08-19T04:39:28;3.45;;;3.15;;
13477;SDS011;12598;62.382;17.344;2022-08-19T04:40:50;3.33;;;3.00;;
13477;SDS011;12598;62.382;17.344;2022-08-19T04:42:11;3.28;;;2.97;;
13477;SDS011;12598;62.382;17.344;2022-08-19T04:43:33;3.53;;;3.22;;
13477;SDS011;12598;62.382;17.344;2022-08-19T04:44:36;3.67;;;3.38;;
13477;SDS011;12598;62.382;17.344;2022-08-19T04:45:46;3.15;;;2.85;;
13477;SDS011;12598;62.382;17.344;2022-08-19T04:46:49;2.83;;;2.63;;
13477;SDS011;12598;62.382;17.344;2022-08-19T04:47:54;3.25;;;3.05;;
13477;SDS011;12598;62.382;17.344;2022-08-19T04:49:18;3.60;;;3.30;;
13477;SDS011;12598;62.382;17.344;2022-08-19T04:50:24;3.28;;;2.97;;
13477;SDS011;12598;62.382;17.344;2022-08-19T04:51:27;3.85;;;3.55;;
13477;SDS011;12598;62.382;17.344;2022-08-19T04:52:32;3.95;;;3.60;;
13477;SDS011;12598;62.382;17.344;2022-08-19T04:53:35;3.45;;;3.15;;
13477;SDS011;12598;62.382;17.344;2022-08-19T04:54:39;4.13;;;3.72;;
13477;SDS011;12598;62.382;17.344;2022-08-19T04:55:41;3.65;;;3.35;;
13477;SDS011;12598;62.382;17.344;2022-08-19T04:56:44;3.80;;;3.42;;
13477;SDS011;12598;62.382;17.344;2022-08-19T04:57:45;3.70;;;3.40;;
13477;SDS011;12598;62.382;17.344;2022-08-19T04:58:48;5.28;;;3.97;;
13477;SDS011;12598;62.382;17.344;2022-08-19T04:59:55;4.38;;;3.97;;
13477;SDS011;12598;62.382;17.344;2022-08-19T05:00:57;3.47;;;3.17;;
13477;SDS011;12598;62.382;17.344;2022-08-19T05:02:02;4.65;;;3.90;;
13477;SDS011;12598;62.382;17.344;2022-08-19T05:03:05;4.18;;;3.63;;
13477;SDS011;12598;62.382;17.344;2022-08-19T05:04:08;4.10;;;3.70;;
13477;SDS011;12598;62.382;17.344;2022-08-19T05:05:10;4.28;;;3.85;;
13477;SDS011;12598;62.382;17.344;2022-08-19T05:06:14;3.90;;;3.53;;
13477;SDS011;12598;62.382;17.344;2022-08-19T05:07:18;4.30;;;3.90;;
13477;SDS011;12598;62.382;17.344;2022-08-19T05:08:20;4.68;;;4.18;;
13477;SDS011;12598;62.382;17.344;2022-08-19T05:09:32;5.28;;;4.13;;
13477;SDS011;12598;62.382;17.344;2022-08-19T05:10:53;4.18;;;3.78;;
13477;SDS011;12598;62.382;17.344;2022-08-19T05:11:55;4.47;;;4.07;;
13477;SDS011;12598;62.382;17.344;2022-08-19T05:12:57;4.10;;;3.70;;
13477;SDS011;12598;62.382;17.344;2022-08-19T05:14:00;4.30;;;3.90;;
13477;SDS011;12598;62.382;17.344;2022-08-19T05:15:03;5.38;;;4.18;;
13477;SDS011;12598;62.382;17.344;2022-08-19T05:16:07;4.50;;;3.97;;
13477;SDS011;12598;62.382;17.344;2022-08-19T05:17:08;4.63;;;4.22;;
13477;SDS011;12598;62.382;17.344;2022-08-19T05:18:30;5.53;;;4.13;;
13477;SDS011;12598;62.382;17.344;2022-08-19T05:19:50;4.43;;;4.03;;
13477;SDS011;12598;62.382;17.344;2022-08-19T05:21:12;4.43;;;3.63;;
13477;SDS011;12598;62.382;17.344;2022-08-19T05:22:34;4.45;;;4.00;;
13477;SDS011;12598;62.382;17.344;2022-08-19T05:23:36;4.88;;;4.28;;
13477;SDS011;12598;62.382;17.344;2022-08-19T05:24:38;4.47;;;4.07;;
13477;SDS011;12598;62.382;17.344;2022-08-19T05:26:00;5.13;;;4.72;;
13477;SDS011;12598;62.382;17.344;2022-08-19T05:27:02;5.63;;;4.80;;
13477;SDS011;12598;62.382;17.344;2022-08-19T05:28:06;5.10;;;4.63;;
13477;SDS011;12598;62.382;17.344;2022-08-19T05:29:08;5.05;;;4.60;;
13477;SDS011;12598;62.382;17.344;2022-08-19T05:30:11;5.50;;;4.47;;
13477;SDS011;12598;62.382;17.344;2022-08-19T05:31:13;5.55;;;4.45;;
13477;SDS011;12598;62.382;17.344;2022-08-19T05:32:15;4.82;;;4.43;;
13477;SDS011;12598;62.382;17.344;2022-08-19T05:33:18;5.55;;;4.40;;
13477;SDS011;12598;62.382;17.344;2022-08-19T05:34:20;5.28;;;4.75;;
13477;SDS011;12598;62.382;17.344;2022-08-19T05:35:24;4.90;;;4.38;;
13477;SDS011;12598;62.382;17.344;2022-08-19T05:36:26;5.40;;;4.90;;
13477;SDS011;12598;62.382;17.344;2022-08-19T05:37:29;6.05;;;5.45;;
13477;SDS011;12598;62.382;17.344;2022-08-19T05:38:31;4.95;;;4.45;;
13477;SDS011;12598;62.382;17.344;2022-08-19T05:39:34;5.75;;;5.15;;
13477;SDS011;12598;62.382;17.344;2022-08-19T05:40:38;4.95;;;4.45;;
13477;SDS011;12598;62.382;17.344;2022-08-19T05:41:41;7.00;;;4.70;;
13477;SDS011;12598;62.382;17.344;2022-08-19T05:42:47;5.78;;;5.10;;
13477;SDS011;12598;62.382;17.344;2022-08-19T05:43:56;6.05;;;5.20;;
13477;SDS011;12598;62.382;17.344;2022-08-19T05:44:59;6.78;;;5.55;;
13477;SDS011;12598;62.382;17.344;2022-08-19T05:46:01;5.65;;;4.82;;
13477;SDS011;12598;62.382;17.344;2022-08-19T05:47:04;6.25;;;5.68;;
13477;SDS011;12598;62.382;17.344;2022-08-19T05:48:08;8.07;;;5.18;;
13477;SDS011;12598;62.382;17.344;2022-08-19T05:49:15;5.97;;;5.40;;
13477;SDS011;12598;62.382;17.344;2022-08-19T05:50:17;6.47;;;5.57;;
13477;SDS011;12598;62.382;17.344;2022-08-19T05:51:19;5.32;;;4.82;;
13477;SDS011;12598;62.382;17.344;2022-08-19T05:52:21;5.90;;;4.72;;
13477;SDS011;12598;62.382;17.344;2022-08-19T05:53:26;5.80;;;5.25;;
13477;SDS011;12598;62.382;17.344;2022-08-19T05:54:28;6.05;;;5.28;;
13477;SDS011;12598;62.382;17.344;2022-08-19T05:55:32;7.40;;;5.72;;
13477;SDS011;12598;62.382;17.344;2022-08-19T05:56:34;5.82;;;5.30;;
13477;SDS011;12598;62.382;17.344;2022-08-19T05:57:39;6.47;;;5.78;;
13477;SDS011;12598;62.382;17.344;2022-08-19T05:58:41;5.97;;;5.40;;
13477;SDS011;12598;62.382;17.344;2022-08-19T05:59:44;6.35;;;5.72;;
13477;SDS011;12598;62.382;17.344;2022-08-19T06:00:53;6.03;;;5.53;;
13477;SDS011;12598;62.382;17.344;2022-08-19T06:01:55;6.57;;;5.88;;
13477;SDS011;12598;62.382;17.344;2022-08-19T06:02:58;6.65;;;5.65;;
13477;SDS011;12598;62.382;17.344;2022-08-19T06:04:13;6.18;;;5.45;;
13477;SDS011;12598;62.382;17.344;2022-08-19T06:05:15;6.15;;;5.55;;
13477;SDS011;12598;62.382;17.344;2022-08-19T06:06:17;7.68;;;6.00;;
13477;SDS011;12598;62.382;17.344;2022-08-19T06:07:20;6.60;;;5.82;;
13477;SDS011;12598;62.382;17.344;2022-08-19T06:08:22;5.80;;;5.13;;
13477;SDS011;12598;62.382;17.344;2022-08-19T06:09:35;6.45;;;5.85;;
13477;SDS011;12598;62.382;17.344;2022-08-19T06:10:38;6.07;;;5.47;;
13477;SDS011;12598;62.382;17.344;2022-08-19T06:11:47;7.03;;;6.43;;
13477;SDS011;12598;62.382;17.344;2022-08-19T06:12:59;7.10;;;6.40;;
13477;SDS011;12598;62.382;17.344;2022-08-19T06:14:04;6.45;;;5.85;;
13477;SDS011;12598;62.382;17.344;2022-08-19T06:15:17;5.80;;;5.20;;
13477;SDS011;12598;62.382;17.344;2022-08-19T06:16:20;6.30;;;5.80;;
13477;SDS011;12598;62.382;17.344;2022-08-19T06:17:23;7.05;;;6.10;;
13477;SDS011;12598;62.382;17.344;2022-08-19T06:18:27;6.40;;;5.85;;
13477;SDS011;12598;62.382;17.344;2022-08-19T06:19:29;6.32;;;5.43;;
13477;SDS011;12598;62.382;17.344;2022-08-19T06:20:31;6.38;;;5.78;;
13477;SDS011;12598;62.382;17.344;2022-08-19T06:21:53;5.72;;;5.22;;
13477;SDS011;12598;62.382;17.344;2022-08-19T06:22:55;6.43;;;5.82;;
13477;SDS011;12598;62.382;17.344;2022-08-19T06:23:57;6.25;;;5.75;;
13477;SDS011;12598;62.382;17.344;2022-08-19T06:25:00;6.47;;;5.88;;